sensor_id;sensor_type;location;lat;lon;timestamp;noise_LAeq;noise_LA_min;noise_LA_max;noise_LA01;noise_LA95
69668;Laerm;66534;52.370;4.832;2023-02-04T00:00:20;41.50;38.34;45.28;;
69668;Laerm;66534;52.370;4.832;2023-02-04T00:00:52;40.72;36.65;44.28;;
69668;Laerm;66534;52.370;4.832;2023-02-04T00:01:22;41.54;36.43;55.09;;
69668;Laerm;66534;52.370;4.832;2023-02-04T00:01:53;42.79;38.22;55.73;;
69668;Laerm;66534;52.370;4.832;2023-02-04T00:02:23;42.95;37.62;50.40;;
69668;Laerm;66534;52.370;4.832;2023-02-04T00:02:54;41.05;36.60;49.27;;
69668;Laerm;66534;52.370;4.832;2023-02-04T00:03:24;41.72;37.20;53.24;;
69668;Laerm;66534;52.370;4.832;2023-02-04T00:03:55;42.61;38.54;51.76;;
69668;Laerm;66534;52.370;4.832;2023-02-04T00:04:25;39.53;36.29;43.66;;
69668;Laerm;66534;52.370;4.832;2023-02-04T00:04:55;42.33;37.36;48.23;;
69668;Laerm;66534;52.370;4.832;2023-02-04T00:05:26;40.63;38.36;48.33;;
69668;Laerm;66534;52.370;4.832;2023-02-04T00:05:56;45.96;38.47;71.29;;
69668;Laerm;66534;52.370;4.832;2023-02-04T00:06:27;41.85;37.56;50.56;;
69668;Laerm;66534;52.370;4.832;2023-02-04T00:06:57;41.30;38.52;46.39;;
69668;Laerm;66534;52.370;4.832;2023-02-04T00:07:27;39.81;37.12;43.94;;
69668;Laerm;66534;52.370;4.832;2023-02-04T00:07:58;41.70;38.56;46.02;;
69668;Laerm;66534;52.370;4.832;2023-02-04T00:08:28;39.03;36.51;42.52;;
69668;Laerm;66534;52.370;4.832;2023-02-04T00:08:59;38.14;35.73;42.27;;
69668;Laerm;66534;52.370;4.832;2023-02-04T00:09:29;40.58;37.89;46.47;;
69668;Laerm;66534;52.370;4.832;2023-02-04T00:10:00;40.37;37.92;48.80;;
69668;Laerm;66534;52.370;4.832;2023-02-04T00:10:31;41.90;38.01;50.18;;
69668;Laerm;66534;52.370;4.832;2023-02-04T00:11:03;43.58;40.49;50.50;;
69668;Laerm;66534;52.370;4.832;2023-02-04T00:11:33;43.27;39.32;49.07;;
69668;Laerm;66534;52.370;4.832;2023-02-04T00:12:04;44.14;37.18;53.21;;
69668;Laerm;66534;52.370;4.832;2023-02-04T00:12:35;46.20;36.96;60.66;;
69668;Laerm;66534;52.370;4.832;2023-02-04T00:13:05;46.69;38.40;64.70;;
69668;Laerm;66534;52.370;4.832;2023-02-04T00:13:35;42.47;38.06;53.55;;
69668;Laerm;66534;52.370;4.832;2023-02-04T00:14:06;42.32;39.41;49.71;;
69668;Laerm;66534;52.370;4.832;2023-02-04T00:14:36;43.53;40.86;48.06;;
69668;Laerm;66534;52.370;4.832;2023-02-04T00:15:07;48.01;41.83;55.52;;
69668;Laerm;66534;52.370;4.832;2023-02-04T00:15:37;42.20;39.66;49.33;;
69668;Laerm;66534;52.370;4.832;2023-02-04T00:16:08;41.98;38.66;46.22;;
69668;Laerm;66534;52.370;4.832;2023-02-04T00:16:38;40.63;37.90;45.29;;
69668;Laerm;66534;52.370;4.832;2023-02-04T00:17:09;42.28;38.84;47.21;;
69668;Laerm;66534;52.370;4.832;2023-02-04T00:17:40;40.04;37.72;44.54;;
69668;Laerm;66534;52.370;4.832;2023-02-04T00:18:11;40.28;37.59;45.08;;
69668;Laerm;66534;52.370;4.832;2023-02-04T00:18:41;42.11;37.79;48.39;;
69668;Laerm;66534;52.370;4.832;2023-02-04T00:19:11;45.11;38.73;51.27;;
69668;Laerm;66534;52.370;4.832;2023-02-04T00:19:42;42.87;39.05;49.46;;
69668;Laerm;66534;52.370;4.832;2023-02-04T00:20:12;40.56;37.77;44.32;;
69668;Laerm;66534;52.370;4.832;2023-02-04T00:20:43;41.72;37.17;48.33;;
69668;Laerm;66534;52.370;4.832;2023-02-04T00:21:13;42.07;37.46;48.15;;
69668;Laerm;66534;52.370;4.832;2023-02-04T00:21:43;42.24;38.69;47.64;;
69668;Laerm;66534;52.370;4.832;2023-02-04T00:22:14;42.91;39.12;47.79;;
69668;Laerm;66534;52.370;4.832;2023-02-04T00:22:44;40.81;37.94;46.65;;
69668;Laerm;66534;52.370;4.832;2023-02-04T00:23:15;40.53;38.19;45.02;;
69668;Laerm;66534;52.370;4.832;2023-02-04T00:23:45;46.17;40.62;57.13;;
69668;Laerm;66534;52.370;4.832;2023-02-04T00:24:15;44.92;36.91;56.92;;
69668;Laerm;66534;52.370;4.832;2023-02-04T00:24:46;41.23;36.06;49.77;;
69668;Laerm;66534;52.370;4.832;2023-02-04T00:25:19;38.34;35.84;43.29;;
69668;Laerm;66534;52.370;4.832;2023-02-04T00:25:49;39.25;36.09;43.94;;
69668;Laerm;66534;52.370;4.832;2023-02-04T00:26:20;44.33;37.28;53.17;;
69668;Laerm;66534;52.370;4.832;2023-02-04T00:26:50;40.10;36.64;46.08;;
69668;Laerm;66534;52.370;4.832;2023-02-04T00:27:20;39.53;36.36;49.07;;
69668;Laerm;66534;52.370;4.832;2023-02-04T00:27:51;38.81;36.65;52.78;;
69668;Laerm;66534;52.370;4.832;2023-02-04T00:28:21;43.42;35.71;59.88;;
69668;Laerm;66534;52.370;4.832;2023-02-04T00:28:52;38.17;35.72;42.03;;
69668;Laerm;66534;52.370;4.832;2023-02-04T00:29:22;41.15;37.24;50.02;;
69668;Laerm;66534;52.370;4.832;2023-02-04T00:29:53;43.32;38.76;52.83;;
69668;Laerm;66534;52.370;4.832;2023-02-04T00:30:23;42.62;37.17;48.67;;
69668;Laerm;66534;52.370;4.832;2023-02-04T00:30:53;41.25;36.30;50.19;;
69668;Laerm;66534;52.370;4.832;2023-02-04T00:31:24;47.54;39.56;56.46;;
69668;Laerm;66534;52.370;4.832;2023-02-04T00:31:54;43.03;37.62;49.36;;
69668;Laerm;66534;52.370;4.832;2023-02-04T00:32:25;39.36;36.75;43.75;;
69668;Laerm;66534;52.370;4.832;2023-02-04T00:32:55;42.94;39.35;48.38;;
69668;Laerm;66534;52.370;4.832;2023-02-04T00:33:26;46.28;39.99;53.18;;
69668;Laerm;66534;52.370;4.832;2023-02-04T00:33:56;40.55;37.93;46.52;;
69668;Laerm;66534;52.370;4.832;2023-02-04T00:34:26;41.62;39.21;44.24;;
69668;Laerm;66534;52.370;4.832;2023-02-04T00:34:57;45.64;39.76;51.42;;
69668;Laerm;66534;52.370;4.832;2023-02-04T00:35:27;41.95;38.84;47.50;;
69668;Laerm;66534;52.370;4.832;2023-02-04T00:35:58;48.91;37.64;63.46;;
69668;Laerm;66534;52.370;4.832;2023-02-04T00:36:28;43.08;35.17;63.61;;
69668;Laerm;66534;52.370;4.832;2023-02-04T00:36:59;41.81;38.06;57.70;;
69668;Laerm;66534;52.370;4.832;2023-02-04T00:37:31;42.58;38.61;47.55;;
69668;Laerm;66534;52.370;4.832;2023-02-04T00:38:02;46.06;40.46;57.07;;
69668;Laerm;66534;52.370;4.832;2023-02-04T00:38:33;47.39;40.28;64.69;;
69668;Laerm;66534;52.370;4.832;2023-02-04T00:39:03;42.55;37.61;60.93;;
69668;Laerm;66534;52.370;4.832;2023-02-04T00:39:35;43.88;38.54;52.14;;
69668;Laerm;66534;52.370;4.832;2023-02-04T00:40:06;40.04;37.61;46.51;;
69668;Laerm;66534;52.370;4.832;2023-02-04T00:40:37;42.25;37.69;48.73;;
69668;Laerm;66534;52.370;4.832;2023-02-04T00:41:07;42.74;40.00;53.60;;
69668;Laerm;66534;52.370;4.832;2023-02-04T00:41:37;45.23;39.73;54.85;;
69668;Laerm;66534;52.370;4.832;2023-02-04T00:42:08;43.41;39.11;48.89;;
69668;Laerm;66534;52.370;4.832;2023-02-04T00:42:38;44.32;40.14;56.20;;
69668;Laerm;66534;52.370;4.832;2023-02-04T00:43:09;41.98;39.14;48.37;;
69668;Laerm;66534;52.370;4.832;2023-02-04T00:43:39;45.48;40.20;51.72;;
69668;Laerm;66534;52.370;4.832;2023-02-04T00:44:10;44.57;40.46;50.22;;
69668;Laerm;66534;52.370;4.832;2023-02-04T00:44:40;42.22;36.48;63.24;;
69668;Laerm;66534;52.370;4.832;2023-02-04T00:45:11;37.63;35.19;44.01;;
69668;Laerm;66534;52.370;4.832;2023-02-04T00:45:42;39.32;36.14;44.07;;
69668;Laerm;66534;52.370;4.832;2023-02-04T00:46:12;43.25;37.27;49.83;;
69668;Laerm;66534;52.370;4.832;2023-02-04T00:46:43;41.98;38.55;47.09;;
69668;Laerm;66534;52.370;4.832;2023-02-04T00:47:13;41.66;37.17;49.59;;
69668;Laerm;66534;52.370;4.832;2023-02-04T00:47:43;41.52;36.45;48.07;;
69668;Laerm;66534;52.370;4.832;2023-02-04T00:48:14;39.75;37.15;46.03;;
69668;Laerm;66534;52.370;4.832;2023-02-04T00:48:44;40.73;37.68;49.31;;
69668;Laerm;66534;52.370;4.832;2023-02-04T00:49:15;40.25;36.50;47.09;;
69668;Laerm;66534;52.370;4.832;2023-02-04T00:49:45;41.91;36.73;55.87;;
69668;Laerm;66534;52.370;4.832;2023-02-04T00:50:16;43.08;38.64;48.63;;
69668;Laerm;66534;52.370;4.832;2023-02-04T00:50:47;40.98;37.47;45.73;;
69668;Laerm;66534;52.370;4.832;2023-02-04T00:51:17;38.60;36.62;45.27;;
69668;Laerm;66534;52.370;4.832;2023-02-04T00:51:47;39.52;36.73;43.23;;
69668;Laerm;66534;52.370;4.832;2023-02-04T00:52:18;40.76;37.15;46.42;;
69668;Laerm;66534;52.370;4.832;2023-02-04T00:52:48;44.36;38.56;59.26;;
69668;Laerm;66534;52.370;4.832;2023-02-04T00:53:19;42.80;37.90;58.00;;
69668;Laerm;66534;52.370;4.832;2023-02-04T00:53:49;43.32;38.29;49.87;;
69668;Laerm;66534;52.370;4.832;2023-02-04T00:54:19;42.65;38.71;48.16;;
69668;Laerm;66534;52.370;4.832;2023-02-04T00:54:50;42.67;39.01;52.77;;
69668;Laerm;66534;52.370;4.832;2023-02-04T00:55:20;45.56;38.09;59.21;;
69668;Laerm;66534;52.370;4.832;2023-02-04T00:55:51;43.81;39.21;51.05;;
69668;Laerm;66534;52.370;4.832;2023-02-04T00:56:21;41.05;37.81;49.17;;
69668;Laerm;66534;52.370;4.832;2023-02-04T00:56:51;41.75;37.35;49.72;;
69668;Laerm;66534;52.370;4.832;2023-02-04T00:57:22;42.10;38.78;48.45;;
69668;Laerm;66534;52.370;4.832;2023-02-04T00:57:52;44.00;37.79;53.66;;
69668;Laerm;66534;52.370;4.832;2023-02-04T00:58:22;45.85;36.62;63.00;;
69668;Laerm;66534;52.370;4.832;2023-02-04T00:58:53;38.43;35.86;44.14;;
69668;Laerm;66534;52.370;4.832;2023-02-04T00:59:23;38.26;35.78;41.66;;
69668;Laerm;66534;52.370;4.832;2023-02-04T00:59:54;42.51;38.06;48.76;;
69668;Laerm;66534;52.370;4.832;2023-02-04T01:00:24;38.84;36.84;40.72;;
69668;Laerm;66534;52.370;4.832;2023-02-04T01:00:55;39.47;36.34;42.22;;
69668;Laerm;66534;52.370;4.832;2023-02-04T01:01:25;40.53;37.29;47.38;;
69668;Laerm;66534;52.370;4.832;2023-02-04T01:01:55;40.60;36.93;47.79;;
69668;Laerm;66534;52.370;4.832;2023-02-04T01:02:26;41.21;37.92;45.65;;
69668;Laerm;66534;52.370;4.832;2023-02-04T01:02:56;42.39;37.79;52.55;;
69668;Laerm;66534;52.370;4.832;2023-02-04T01:03:27;39.38;36.46;42.33;;
69668;Laerm;66534;52.370;4.832;2023-02-04T01:03:57;40.62;37.49;46.73;;
69668;Laerm;66534;52.370;4.832;2023-02-04T01:04:27;45.02;37.33;52.65;;
69668;Laerm;66534;52.370;4.832;2023-02-04T01:04:58;42.38;37.40;50.54;;
69668;Laerm;66534;52.370;4.832;2023-02-04T01:05:29;40.37;37.51;44.87;;
69668;Laerm;66534;52.370;4.832;2023-02-04T01:05:59;39.55;36.50;44.31;;
69668;Laerm;66534;52.370;4.832;2023-02-04T01:06:29;39.36;36.39;43.04;;
69668;Laerm;66534;52.370;4.832;2023-02-04T01:07:00;44.04;38.39;50.66;;
69668;Laerm;66534;52.370;4.832;2023-02-04T01:07:30;39.00;36.98;44.31;;
69668;Laerm;66534;52.370;4.832;2023-02-04T01:08:01;40.17;37.36;43.67;;
69668;Laerm;66534;52.370;4.832;2023-02-04T01:08:31;38.95;36.83;41.37;;
69668;Laerm;66534;52.370;4.832;2023-02-04T01:09:02;40.13;36.80;45.64;;
69668;Laerm;66534;52.370;4.832;2023-02-04T01:09:32;42.60;37.26;48.07;;
69668;Laerm;66534;52.370;4.832;2023-02-04T01:10:03;38.64;36.23;45.19;;
69668;Laerm;66534;52.370;4.832;2023-02-04T01:10:34;44.53;37.19;52.09;;
69668;Laerm;66534;52.370;4.832;2023-02-04T01:11:04;41.76;38.20;46.79;;
69668;Laerm;66534;52.370;4.832;2023-02-04T01:11:35;38.70;36.10;41.50;;
69668;Laerm;66534;52.370;4.832;2023-02-04T01:12:05;40.08;37.11;45.95;;
69668;Laerm;66534;52.370;4.832;2023-02-04T01:12:37;41.85;36.73;51.87;;
69668;Laerm;66534;52.370;4.832;2023-02-04T01:13:08;38.57;35.62;43.06;;
69668;Laerm;66534;52.370;4.832;2023-02-04T01:13:38;45.27;36.16;63.76;;
69668;Laerm;66534;52.370;4.832;2023-02-04T01:14:09;40.24;37.00;42.91;;
69668;Laerm;66534;52.370;4.832;2023-02-04T01:14:40;39.22;36.83;42.20;;
69668;Laerm;66534;52.370;4.832;2023-02-04T01:15:10;41.88;37.14;53.25;;
69668;Laerm;66534;52.370;4.832;2023-02-04T01:15:40;40.26;37.13;45.02;;
69668;Laerm;66534;52.370;4.832;2023-02-04T01:16:11;43.00;38.48;50.65;;
69668;Laerm;66534;52.370;4.832;2023-02-04T01:16:42;41.77;38.74;46.96;;
69668;Laerm;66534;52.370;4.832;2023-02-04T01:17:12;44.22;37.84;54.87;;
69668;Laerm;66534;52.370;4.832;2023-02-04T01:17:43;44.11;39.24;52.54;;
69668;Laerm;66534;52.370;4.832;2023-02-04T01:18:13;41.01;36.60;48.44;;
69668;Laerm;66534;52.370;4.832;2023-02-04T01:18:44;38.20;35.91;42.20;;
69668;Laerm;66534;52.370;4.832;2023-02-04T01:19:14;37.94;35.92;40.32;;
69668;Laerm;66534;52.370;4.832;2023-02-04T01:19:45;39.02;35.95;46.61;;
69668;Laerm;66534;52.370;4.832;2023-02-04T01:20:15;37.89;35.70;40.01;;
69668;Laerm;66534;52.370;4.832;2023-02-04T01:20:46;39.14;36.21;53.85;;
69668;Laerm;66534;52.370;4.832;2023-02-04T01:21:16;38.22;36.09;45.93;;
69668;Laerm;66534;52.370;4.832;2023-02-04T01:21:46;40.21;37.88;47.65;;
69668;Laerm;66534;52.370;4.832;2023-02-04T01:22:17;42.32;38.91;49.23;;
69668;Laerm;66534;52.370;4.832;2023-02-04T01:22:47;45.26;39.78;55.23;;
69668;Laerm;66534;52.370;4.832;2023-02-04T01:23:18;39.88;36.42;43.82;;
69668;Laerm;66534;52.370;4.832;2023-02-04T01:23:48;41.88;36.07;48.54;;
69668;Laerm;66534;52.370;4.832;2023-02-04T01:24:19;49.83;37.40;66.40;;
69668;Laerm;66534;52.370;4.832;2023-02-04T01:24:49;39.39;36.70;48.94;;
69668;Laerm;66534;52.370;4.832;2023-02-04T01:25:20;38.73;36.62;40.80;;
69668;Laerm;66534;52.370;4.832;2023-02-04T01:25:50;40.00;36.54;47.30;;
69668;Laerm;66534;52.370;4.832;2023-02-04T01:26:21;47.98;42.17;56.35;;
69668;Laerm;66534;52.370;4.832;2023-02-04T01:26:51;50.29;42.42;60.57;;
69668;Laerm;66534;52.370;4.832;2023-02-04T01:27:22;42.29;37.78;52.11;;
69668;Laerm;66534;52.370;4.832;2023-02-04T01:27:52;41.00;37.54;44.96;;
69668;Laerm;66534;52.370;4.832;2023-02-04T01:28:23;42.84;37.74;50.70;;
69668;Laerm;66534;52.370;4.832;2023-02-04T01:28:53;38.94;36.19;46.18;;
69668;Laerm;66534;52.370;4.832;2023-02-04T01:29:23;39.09;36.52;43.90;;
69668;Laerm;66534;52.370;4.832;2023-02-04T01:29:54;41.43;36.12;48.44;;
69668;Laerm;66534;52.370;4.832;2023-02-04T01:30:24;41.67;36.84;50.89;;
69668;Laerm;66534;52.370;4.832;2023-02-04T01:30:55;42.46;36.86;48.03;;
69668;Laerm;66534;52.370;4.832;2023-02-04T01:31:25;38.34;35.63;42.67;;
69668;Laerm;66534;52.370;4.832;2023-02-04T01:31:56;40.67;36.17;49.27;;
69668;Laerm;66534;52.370;4.832;2023-02-04T01:32:26;44.14;37.81;53.93;;
69668;Laerm;66534;52.370;4.832;2023-02-04T01:32:57;40.51;35.96;48.18;;
69668;Laerm;66534;52.370;4.832;2023-02-04T01:33:27;37.62;35.39;44.99;;
69668;Laerm;66534;52.370;4.832;2023-02-04T01:33:57;39.11;35.49;44.61;;
69668;Laerm;66534;52.370;4.832;2023-02-04T01:34:28;41.27;37.67;44.64;;
69668;Laerm;66534;52.370;4.832;2023-02-04T01:35:00;40.05;36.72;44.55;;
69668;Laerm;66534;52.370;4.832;2023-02-04T01:35:31;40.83;37.65;49.50;;
69668;Laerm;66534;52.370;4.832;2023-02-04T01:36:01;39.55;37.44;41.54;;
69668;Laerm;66534;52.370;4.832;2023-02-04T01:36:31;41.26;37.78;46.09;;
69668;Laerm;66534;52.370;4.832;2023-02-04T01:37:02;38.51;36.15;42.86;;
69668;Laerm;66534;52.370;4.832;2023-02-04T01:37:32;39.33;35.94;44.78;;
69668;Laerm;66534;52.370;4.832;2023-02-04T01:38:03;43.32;36.97;50.46;;
69668;Laerm;66534;52.370;4.832;2023-02-04T01:38:33;41.17;37.38;45.75;;
69668;Laerm;66534;52.370;4.832;2023-02-04T01:39:04;39.61;35.71;44.74;;
69668;Laerm;66534;52.370;4.832;2023-02-04T01:39:34;39.95;35.96;43.91;;
69668;Laerm;66534;52.370;4.832;2023-02-04T01:40:06;40.12;36.47;50.39;;
69668;Laerm;66534;52.370;4.832;2023-02-04T01:40:37;39.24;37.12;41.88;;
69668;Laerm;66534;52.370;4.832;2023-02-04T01:41:07;40.07;36.97;44.50;;
69668;Laerm;66534;52.370;4.832;2023-02-04T01:41:38;41.36;37.34;47.18;;
69668;Laerm;66534;52.370;4.832;2023-02-04T01:42:09;41.86;37.79;47.69;;
69668;Laerm;66534;52.370;4.832;2023-02-04T01:42:40;40.77;36.23;51.68;;
69668;Laerm;66534;52.370;4.832;2023-02-04T01:43:11;39.77;35.68;47.01;;
69668;Laerm;66534;52.370;4.832;2023-02-04T01:43:41;38.13;35.20;41.81;;
69668;Laerm;66534;52.370;4.832;2023-02-04T01:44:12;38.62;35.97;40.71;;
69668;Laerm;66534;52.370;4.832;2023-02-04T01:44:42;39.84;36.92;47.04;;
69668;Laerm;66534;52.370;4.832;2023-02-04T01:45:13;37.88;35.74;43.66;;
69668;Laerm;66534;52.370;4.832;2023-02-04T01:45:44;39.36;36.65;42.99;;
69668;Laerm;66534;52.370;4.832;2023-02-04T01:46:15;38.82;36.74;42.46;;
69668;Laerm;66534;52.370;4.832;2023-02-04T01:46:46;43.65;38.94;50.32;;
69668;Laerm;66534;52.370;4.832;2023-02-04T01:47:17;40.93;36.02;51.56;;
69668;Laerm;66534;52.370;4.832;2023-02-04T01:47:47;38.22;35.64;44.80;;
69668;Laerm;66534;52.370;4.832;2023-02-04T01:48:20;38.56;35.30;45.24;;
69668;Laerm;66534;52.370;4.832;2023-02-04T01:48:51;41.64;38.01;45.62;;
69668;Laerm;66534;52.370;4.832;2023-02-04T01:49:23;40.90;36.84;44.93;;
69668;Laerm;66534;52.370;4.832;2023-02-04T01:49:54;37.17;35.29;39.65;;
69668;Laerm;66534;52.370;4.832;2023-02-04T01:50:24;37.99;35.51;40.80;;
69668;Laerm;66534;52.370;4.832;2023-02-04T01:51:02;42.26;36.59;54.38;;
69668;Laerm;66534;52.370;4.832;2023-02-04T01:51:34;42.52;38.24;48.14;;
69668;Laerm;66534;52.370;4.832;2023-02-04T01:52:09;41.46;36.68;50.68;;
69668;Laerm;66534;52.370;4.832;2023-02-04T01:52:41;42.10;36.24;49.39;;
69668;Laerm;66534;52.370;4.832;2023-02-04T01:53:15;40.01;36.86;50.72;;
69668;Laerm;66534;52.370;4.832;2023-02-04T01:53:47;39.22;36.73;52.51;;
69668;Laerm;66534;52.370;4.832;2023-02-04T01:54:17;46.58;37.90;52.30;;
69668;Laerm;66534;52.370;4.832;2023-02-04T01:54:50;39.93;35.73;51.59;;
69668;Laerm;66534;52.370;4.832;2023-02-04T01:55:25;36.97;34.86;39.12;;
69668;Laerm;66534;52.370;4.832;2023-02-04T01:55:56;37.19;35.08;41.09;;
69668;Laerm;66534;52.370;4.832;2023-02-04T01:56:29;38.64;35.43;42.25;;
69668;Laerm;66534;52.370;4.832;2023-02-04T01:56:59;39.69;35.68;45.11;;
69668;Laerm;66534;52.370;4.832;2023-02-04T01:57:36;41.58;36.56;46.31;;
69668;Laerm;66534;52.370;4.832;2023-02-04T01:58:09;45.34;39.44;54.24;;
69668;Laerm;66534;52.370;4.832;2023-02-04T01:58:41;39.95;37.41;41.82;;
69668;Laerm;66534;52.370;4.832;2023-02-04T01:59:14;40.21;37.00;43.77;;
69668;Laerm;66534;52.370;4.832;2023-02-04T01:59:46;42.68;38.08;51.25;;
69668;Laerm;66534;52.370;4.832;2023-02-04T02:00:22;41.31;37.18;48.87;;
69668;Laerm;66534;52.370;4.832;2023-02-04T02:00:53;42.11;36.89;51.60;;
69668;Laerm;66534;52.370;4.832;2023-02-04T02:01:37;45.29;37.98;57.57;;
69668;Laerm;66534;52.370;4.832;2023-02-04T02:02:44;42.63;36.36;54.93;;
69668;Laerm;66534;52.370;4.832;2023-02-04T02:03:15;39.02;36.45;45.04;;
69668;Laerm;66534;52.370;4.832;2023-02-04T02:03:46;39.28;35.77;42.35;;
69668;Laerm;66534;52.370;4.832;2023-02-04T02:04:19;40.08;35.92;45.59;;
69668;Laerm;66534;52.370;4.832;2023-02-04T02:04:50;42.22;36.51;57.46;;
69668;Laerm;66534;52.370;4.832;2023-02-04T02:05:24;40.04;35.73;48.01;;
69668;Laerm;66534;52.370;4.832;2023-02-04T02:05:56;43.71;36.40;53.36;;
69668;Laerm;66534;52.370;4.832;2023-02-04T02:06:27;40.11;36.33;49.00;;
69668;Laerm;66534;52.370;4.832;2023-02-04T02:07:01;42.35;36.83;50.06;;
69668;Laerm;66534;52.370;4.832;2023-02-04T02:07:33;40.63;36.95;46.33;;
69668;Laerm;66534;52.370;4.832;2023-02-04T02:08:04;40.45;36.93;45.68;;
69668;Laerm;66534;52.370;4.832;2023-02-04T02:08:36;41.14;36.41;48.12;;
69668;Laerm;66534;52.370;4.832;2023-02-04T02:09:07;41.98;38.84;46.11;;
69668;Laerm;66534;52.370;4.832;2023-02-04T02:09:37;40.74;37.85;43.78;;
69668;Laerm;66534;52.370;4.832;2023-02-04T02:10:10;39.42;35.83;45.85;;
69668;Laerm;66534;52.370;4.832;2023-02-04T02:10:44;43.94;36.83;49.86;;
69668;Laerm;66534;52.370;4.832;2023-02-04T02:11:15;40.89;37.01;47.07;;
69668;Laerm;66534;52.370;4.832;2023-02-04T02:11:46;39.46;37.30;41.93;;
69668;Laerm;66534;52.370;4.832;2023-02-04T02:12:17;41.64;37.36;46.04;;
69668;Laerm;66534;52.370;4.832;2023-02-04T02:12:47;41.72;37.44;45.61;;
69668;Laerm;66534;52.370;4.832;2023-02-04T02:13:18;40.86;36.84;45.80;;
69668;Laerm;66534;52.370;4.832;2023-02-04T02:13:48;40.03;36.59;44.83;;
69668;Laerm;66534;52.370;4.832;2023-02-04T02:14:19;39.07;36.32;41.68;;
69668;Laerm;66534;52.370;4.832;2023-02-04T02:14:50;40.85;36.35;49.57;;
69668;Laerm;66534;52.370;4.832;2023-02-04T02:15:21;39.83;36.87;43.21;;
69668;Laerm;66534;52.370;4.832;2023-02-04T02:15:51;42.44;36.17;50.47;;
69668;Laerm;66534;52.370;4.832;2023-02-04T02:16:22;37.84;35.06;40.34;;
69668;Laerm;66534;52.370;4.832;2023-02-04T02:16:53;40.31;36.68;46.34;;
69668;Laerm;66534;52.370;4.832;2023-02-04T02:17:23;39.82;37.14;44.42;;
69668;Laerm;66534;52.370;4.832;2023-02-04T02:17:54;41.82;36.64;51.74;;
69668;Laerm;66534;52.370;4.832;2023-02-04T02:18:25;39.11;35.91;43.72;;
69668;Laerm;66534;52.370;4.832;2023-02-04T02:18:56;39.29;36.45;42.49;;
69668;Laerm;66534;52.370;4.832;2023-02-04T02:19:32;40.28;35.66;48.14;;
69668;Laerm;66534;52.370;4.832;2023-02-04T02:20:07;38.56;35.13;53.40;;
69668;Laerm;66534;52.370;4.832;2023-02-04T02:20:38;38.55;35.46;43.41;;
69668;Laerm;66534;52.370;4.832;2023-02-04T02:21:11;39.01;35.59;42.46;;
69668;Laerm;66534;52.370;4.832;2023-02-04T02:23:05;41.76;37.76;51.48;;
69668;Laerm;66534;52.370;4.832;2023-02-04T02:23:52;41.85;37.06;47.39;;
69668;Laerm;66534;52.370;4.832;2023-02-04T02:24:28;40.68;36.90;46.62;;
69668;Laerm;66534;52.370;4.832;2023-02-04T02:24:59;41.33;37.68;44.98;;
69668;Laerm;66534;52.370;4.832;2023-02-04T02:25:29;43.71;36.50;52.85;;
69668;Laerm;66534;52.370;4.832;2023-02-04T02:26:00;42.73;36.54;57.39;;
69668;Laerm;66534;52.370;4.832;2023-02-04T02:26:30;39.24;35.34;44.62;;
69668;Laerm;66534;52.370;4.832;2023-02-04T02:27:04;46.11;36.52;53.59;;
69668;Laerm;66534;52.370;4.832;2023-02-04T02:27:37;42.72;36.70;50.84;;
69668;Laerm;66534;52.370;4.832;2023-02-04T02:28:16;39.71;34.86;46.65;;
69668;Laerm;66534;52.370;4.832;2023-02-04T02:28:48;36.82;34.62;38.90;;
69668;Laerm;66534;52.370;4.832;2023-02-04T02:29:19;37.60;34.47;40.38;;
69668;Laerm;66534;52.370;4.832;2023-02-04T02:29:50;37.14;34.52;44.93;;
69668;Laerm;66534;52.370;4.832;2023-02-04T02:30:21;36.88;34.33;38.88;;
69668;Laerm;66534;52.370;4.832;2023-02-04T02:30:52;42.38;35.47;51.35;;
69668;Laerm;66534;52.370;4.832;2023-02-04T02:31:22;39.36;34.89;50.67;;
69668;Laerm;66534;52.370;4.832;2023-02-04T02:31:54;37.73;35.11;45.73;;
69668;Laerm;66534;52.370;4.832;2023-02-04T02:32:29;40.95;35.45;46.89;;
69668;Laerm;66534;52.370;4.832;2023-02-04T02:32:59;37.23;34.78;41.31;;
69668;Laerm;66534;52.370;4.832;2023-02-04T02:33:30;36.78;35.01;38.28;;
69668;Laerm;66534;52.370;4.832;2023-02-04T02:34:00;37.55;35.19;42.73;;
69668;Laerm;66534;52.370;4.832;2023-02-04T02:34:32;40.36;35.11;46.20;;
69668;Laerm;66534;52.370;4.832;2023-02-04T02:35:04;38.26;35.94;40.76;;
69668;Laerm;66534;52.370;4.832;2023-02-04T02:35:35;39.30;35.95;46.07;;
69668;Laerm;66534;52.370;4.832;2023-02-04T02:36:05;43.90;36.68;57.66;;
69668;Laerm;66534;52.370;4.832;2023-02-04T02:36:36;54.45;39.04;76.98;;
69668;Laerm;66534;52.370;4.832;2023-02-04T02:37:07;40.81;35.70;60.17;;
69668;Laerm;66534;52.370;4.832;2023-02-04T02:37:41;38.81;35.36;51.33;;
69668;Laerm;66534;52.370;4.832;2023-02-04T02:38:11;41.50;35.12;53.84;;
69668;Laerm;66534;52.370;4.832;2023-02-04T02:38:42;41.20;37.39;47.28;;
69668;Laerm;66534;52.370;4.832;2023-02-04T02:39:13;45.19;37.30;63.48;;
69668;Laerm;66534;52.370;4.832;2023-02-04T02:39:44;40.17;34.58;49.37;;
69668;Laerm;66534;52.370;4.832;2023-02-04T02:40:15;36.37;34.51;38.30;;
69668;Laerm;66534;52.370;4.832;2023-02-04T02:40:46;38.59;35.23;45.18;;
69668;Laerm;66534;52.370;4.832;2023-02-04T02:41:17;40.06;36.18;55.68;;
69668;Laerm;66534;52.370;4.832;2023-02-04T02:41:48;39.40;35.44;44.20;;
69668;Laerm;66534;52.370;4.832;2023-02-04T02:42:19;40.37;36.18;46.39;;
69668;Laerm;66534;52.370;4.832;2023-02-04T02:42:51;39.82;36.35;44.30;;
69668;Laerm;66534;52.370;4.832;2023-02-04T02:43:24;43.33;34.97;51.86;;
69668;Laerm;66534;52.370;4.832;2023-02-04T02:43:56;37.34;35.13;40.59;;
69668;Laerm;66534;52.370;4.832;2023-02-04T02:44:26;39.05;36.53;42.52;;
69668;Laerm;66534;52.370;4.832;2023-02-04T02:44:58;40.23;36.10;46.88;;
69668;Laerm;66534;52.370;4.832;2023-02-04T02:45:32;39.86;36.47;42.96;;
69668;Laerm;66534;52.370;4.832;2023-02-04T02:46:04;38.32;35.07;42.54;;
69668;Laerm;66534;52.370;4.832;2023-02-04T02:46:34;37.59;35.31;43.08;;
69668;Laerm;66534;52.370;4.832;2023-02-04T02:47:05;41.71;35.55;53.63;;
69668;Laerm;66534;52.370;4.832;2023-02-04T02:47:35;38.71;35.68;45.38;;
69668;Laerm;66534;52.370;4.832;2023-02-04T02:48:07;37.86;34.78;43.34;;
69668;Laerm;66534;52.370;4.832;2023-02-04T02:48:38;36.20;34.25;38.17;;
69668;Laerm;66534;52.370;4.832;2023-02-04T02:49:16;38.88;35.60;42.58;;
69668;Laerm;66534;52.370;4.832;2023-02-04T02:49:49;39.93;35.25;46.65;;
69668;Laerm;66534;52.370;4.832;2023-02-04T02:50:22;46.74;36.72;58.51;;
69668;Laerm;66534;52.370;4.832;2023-02-04T02:50:54;40.93;35.66;51.35;;
69668;Laerm;66534;52.370;4.832;2023-02-04T02:51:24;40.44;36.81;45.45;;
69668;Laerm;66534;52.370;4.832;2023-02-04T02:51:54;41.63;37.23;48.89;;
69668;Laerm;66534;52.370;4.832;2023-02-04T02:52:25;38.50;35.77;45.39;;
69668;Laerm;66534;52.370;4.832;2023-02-04T02:52:55;40.40;36.67;45.51;;
69668;Laerm;66534;52.370;4.832;2023-02-04T02:53:26;46.75;38.13;55.33;;
69668;Laerm;66534;52.370;4.832;2023-02-04T02:53:57;39.14;36.04;47.11;;
69668;Laerm;66534;52.370;4.832;2023-02-04T02:54:29;38.79;35.38;44.62;;
69668;Laerm;66534;52.370;4.832;2023-02-04T02:55:00;43.35;36.91;49.86;;
69668;Laerm;66534;52.370;4.832;2023-02-04T02:55:30;38.54;35.49;44.56;;
69668;Laerm;66534;52.370;4.832;2023-02-04T02:56:01;38.58;36.40;41.95;;